createdAt,value
2023-02-01T00:01:35.577Z,60.57
2023-02-01T00:04:05.755Z,61.05
2023-02-01T00:06:34.249Z,60.75
2023-02-01T00:09:03.282Z,60.81
2023-02-01T00:11:32.280Z,61.03
2023-02-01T00:14:00.823Z,60.60
2023-02-01T00:16:31.077Z,60.35
2023-02-01T00:19:02.412Z,60.00
2023-02-01T00:21:32.752Z,60.69
2023-02-01T00:24:01.770Z,60.25
2023-02-01T00:26:34.080Z,60.07
2023-02-01T00:29:03.467Z,60.14
2023-02-01T00:31:32.354Z,60.02
2023-02-01T00:34:01.245Z,60.21
2023-02-01T00:36:30.464Z,60.21
2023-02-01T00:39:00.390Z,60.10
2023-02-01T00:41:29.145Z,60.23
2023-02-01T00:43:57.688Z,59.86
2023-02-01T00:46:26.618Z,59.52
2023-02-01T00:48:55.562Z,59.52
2023-02-01T00:51:27.261Z,59.63
2023-02-01T00:53:59.417Z,60.27
2023-02-01T00:56:29.577Z,60.30
2023-02-01T00:58:58.293Z,60.47
2023-02-01T01:01:28.666Z,60.55
2023-02-01T01:03:58.942Z,60.71
2023-02-01T01:06:29.869Z,61.06
2023-02-01T01:09:01.800Z,61.04
2023-02-01T01:11:33.096Z,60.93
2023-02-01T01:14:02.555Z,61.00
2023-02-01T01:16:33.829Z,61.45
2023-02-01T01:19:03.242Z,62.00
2023-02-01T01:21:32.602Z,62.16
2023-02-01T01:24:02.720Z,62.33
2023-02-01T01:26:32.526Z,62.18
2023-02-01T01:29:02.046Z,62.38
2023-02-01T01:31:31.136Z,62.37
2023-02-01T01:34:01.518Z,62.71
2023-02-01T01:36:32.119Z,62.62
2023-02-01T01:39:00.854Z,62.76
2023-02-01T01:41:33.735Z,62.90
2023-02-01T01:44:43.406Z,62.67
2023-02-01T01:47:12.420Z,63.45
2023-02-01T01:49:41.090Z,63.47
2023-02-01T01:52:09.985Z,63.20
2023-02-01T01:54:43.118Z,63.37
2023-02-01T01:57:16.677Z,63.61
2023-02-01T01:59:51.308Z,63.72
2023-02-01T02:02:20.499Z,63.82
2023-02-01T02:04:49.869Z,63.64
2023-02-01T02:07:23.750Z,63.60
2023-02-01T02:10:00.553Z,63.51
2023-02-01T02:12:31.367Z,63.24
2023-02-01T02:15:00.233Z,62.93
2023-02-01T02:17:37.382Z,63.48
2023-02-01T02:20:38.665Z,63.72
2023-02-01T02:23:39.840Z,63.68
2023-02-01T02:26:27.701Z,63.60
2023-02-01T02:29:26.768Z,63.40
2023-02-01T02:32:19.112Z,63.55
2023-02-01T02:34:54.808Z,63.58
2023-02-01T02:37:31.535Z,64.02
2023-02-01T02:40:10.167Z,63.75
2023-02-01T02:43:03.324Z,63.84
2023-02-01T02:45:58.441Z,64.08
2023-02-01T02:48:33.134Z,64.24
2023-02-01T02:51:25.039Z,64.06
2023-02-01T02:54:30.754Z,64.05
2023-02-01T02:57:20.951Z,63.82
2023-02-01T03:00:08.150Z,63.67
2023-02-01T03:02:55.155Z,64.04
2023-02-01T03:05:23.810Z,63.58
2023-02-01T03:08:04.262Z,63.43
2023-02-01T03:10:44.292Z,63.29
2023-02-01T03:13:15.989Z,62.91
2023-02-01T03:15:51.820Z,63.03
2023-02-01T03:18:27.730Z,62.50
2023-02-01T03:20:59.288Z,62.91
2023-02-01T03:23:33.712Z,62.43
2023-02-01T03:26:04.200Z,62.33
2023-02-01T03:28:36.385Z,62.64
2023-02-01T03:31:05.633Z,62.57
2023-02-01T03:33:34.857Z,62.72
2023-02-01T03:36:13.532Z,63.20
2023-02-01T03:38:50.907Z,64.12
2023-02-01T03:41:28.735Z,64.45
2023-02-01T03:44:02.294Z,64.58
2023-02-01T03:46:35.824Z,64.99
2023-02-01T03:49:09.405Z,64.91
2023-02-01T03:51:42.617Z,65.14
2023-02-01T03:54:17.560Z,65.43
2023-02-01T03:56:48.530Z,65.50
2023-02-01T03:59:17.372Z,65.79
2023-02-01T04:01:45.796Z,65.60
2023-02-01T04:04:21.562Z,65.74
2023-02-01T04:06:54.340Z,65.74
2023-02-01T04:09:25.440Z,65.58
2023-02-01T04:11:54.084Z,65.31
2023-02-01T04:14:23.122Z,64.27
2023-02-01T04:16:51.809Z,64.16
2023-02-01T04:19:20.929Z,64.50
2023-02-01T04:21:49.413Z,64.52
2023-02-01T04:24:17.960Z,64.41
2023-02-01T04:26:48.038Z,64.20
2023-02-01T04:29:16.651Z,64.46
2023-02-01T04:31:45.301Z,64.62
2023-02-01T04:34:13.810Z,64.67
2023-02-01T04:36:42.354Z,64.60
2023-02-01T04:39:11.513Z,65.17
2023-02-01T04:41:40.096Z,65.81
2023-02-01T04:44:16.302Z,66.17
2023-02-01T04:46:45.162Z,66.18
2023-02-01T04:49:14.857Z,66.63
2023-02-01T04:51:43.870Z,66.96
2023-02-01T04:54:13.631Z,67.01
2023-02-01T04:56:42.651Z,66.77
2023-02-01T04:59:14.380Z,66.78
2023-02-01T05:01:49.833Z,66.97
2023-02-01T05:04:24.313Z,67.36
2023-02-01T05:06:53.010Z,66.94
2023-02-01T05:09:22.901Z,67.36
2023-02-01T05:12:08.866Z,66.83
2023-02-01T05:14:38.842Z,67.18
2023-02-01T05:17:07.331Z,66.86
2023-02-01T05:19:35.839Z,67.02
2023-02-01T05:22:04.345Z,66.80
2023-02-01T05:24:32.879Z,66.44
2023-02-01T05:27:01.642Z,66.08
2023-02-01T05:29:30.390Z,65.54
2023-02-01T05:32:08.422Z,65.41
2023-02-01T05:34:43.895Z,65.27
2023-02-01T05:37:12.385Z,65.39
2023-02-01T05:39:41.070Z,65.42
2023-02-01T05:42:09.564Z,65.27
2023-02-01T05:44:38.038Z,65.81
2023-02-01T05:47:08.001Z,65.69
2023-02-01T05:49:36.786Z,64.78
2023-02-01T05:52:05.523Z,65.22
2023-02-01T05:54:34.235Z,66.26
2023-02-01T05:57:02.811Z,65.81
2023-02-01T05:59:31.601Z,65.71
2023-02-01T06:02:00.224Z,65.87
2023-02-01T06:04:30.238Z,65.24
2023-02-01T06:06:58.803Z,65.74
2023-02-01T06:09:27.403Z,65.77
2023-02-01T06:11:56.033Z,65.74
2023-02-01T06:14:24.901Z,65.73
2023-02-01T06:16:53.432Z,65.50
2023-02-01T06:19:22.762Z,65.58
2023-02-01T06:21:52.647Z,65.70
2023-02-01T06:24:21.766Z,65.57
2023-02-01T06:26:50.407Z,66.36
2023-02-01T06:29:19.156Z,65.96
2023-02-01T06:31:48.710Z,66.32
2023-02-01T06:34:17.355Z,66.12
2023-02-01T06:36:45.831Z,65.83
2023-02-01T06:39:17.245Z,65.92
2023-02-01T06:41:48.724Z,65.36
2023-02-01T06:44:17.791Z,64.93
2023-02-01T06:46:46.268Z,64.99
2023-02-01T06:49:14.932Z,65.32
2023-02-01T06:51:43.545Z,65.67
2023-02-01T06:54:12.051Z,65.73
2023-02-01T06:56:41.925Z,66.44
2023-02-01T06:59:10.937Z,66.47
2023-02-01T07:01:39.450Z,67.02
2023-02-01T07:04:08.214Z,66.79
2023-02-01T07:06:36.612Z,66.53
2023-02-01T07:09:05.258Z,66.44
2023-02-01T07:11:33.823Z,66.55
2023-02-01T07:14:03.742Z,66.07
2023-02-01T07:16:32.419Z,65.73
2023-02-01T07:19:01.221Z,65.10
2023-02-01T07:21:29.850Z,64.89
2023-02-01T07:23:58.464Z,65.78
2023-02-01T07:26:26.975Z,65.89
2023-02-01T07:28:55.649Z,65.40
2023-02-01T07:31:27.747Z,65.41
2023-02-01T07:33:58.742Z,65.66
2023-02-01T07:36:27.431Z,66.18
2023-02-01T07:38:56.886Z,66.18
2023-02-01T07:41:25.775Z,66.80
2023-02-01T07:43:55.257Z,67.05
2023-02-01T07:46:25.294Z,66.73
2023-02-01T07:48:53.825Z,66.00
2023-02-01T07:51:22.393Z,66.03
2023-02-01T07:53:50.936Z,65.16
2023-02-01T07:56:21.783Z,65.25
2023-02-01T07:58:50.824Z,65.70
2023-02-01T08:01:22.717Z,65.02
2023-02-01T08:03:54.509Z,64.76
2023-02-01T08:06:24.322Z,64.28
2023-02-01T08:08:55.222Z,64.48
2023-02-01T08:11:25.550Z,64.43
2023-02-01T08:13:54.637Z,64.18
2023-02-01T08:16:24.613Z,63.53
2023-02-01T08:18:55.316Z,63.48
2023-02-01T08:21:26.359Z,63.15
2023-02-01T08:23:57.370Z,62.54
2023-02-01T08:26:27.971Z,63.02
2023-02-01T08:28:59.161Z,63.05
2023-02-01T08:31:29.446Z,62.58
2023-02-01T08:34:01.556Z,62.24
2023-02-01T08:36:31.709Z,61.57
2023-02-01T08:39:00.677Z,60.88
2023-02-01T08:41:31.993Z,60.38
2023-02-01T08:44:00.904Z,59.66
2023-02-01T08:46:29.447Z,59.03
2023-02-01T08:48:59.839Z,58.96
2023-02-01T08:51:28.412Z,59.04
2023-02-01T08:53:56.885Z,58.70
2023-02-01T08:56:25.443Z,58.25
2023-02-01T08:58:54.179Z,58.45
2023-02-01T09:01:22.650Z,57.93
2023-02-01T09:03:51.310Z,57.93
2023-02-01T09:06:21.461Z,57.91
2023-02-01T09:08:49.937Z,57.44
2023-02-01T09:11:21.567Z,56.40
2023-02-01T09:13:50.902Z,56.13
2023-02-01T09:16:21.508Z,55.22
2023-02-01T09:19:01.631Z,54.70
2023-02-01T09:21:40.263Z,53.78
2023-02-01T09:24:09.898Z,53.88
2023-02-01T09:26:38.932Z,52.74
2023-02-01T09:29:12.383Z,52.67
2023-02-01T09:31:49.851Z,53.41
2023-02-01T09:34:22.780Z,51.88
2023-02-01T09:36:52.736Z,52.88
2023-02-01T09:39:21.964Z,52.88
2023-02-01T09:41:59.647Z,52.97
2023-02-01T09:44:46.951Z,52.64
2023-02-01T09:47:18.030Z,52.52
2023-02-01T09:49:53.962Z,51.50
2023-02-01T09:52:30.806Z,51.48
2023-02-01T09:55:03.968Z,51.33
2023-02-01T09:57:44.358Z,50.45
2023-02-01T10:00:23.183Z,50.37
2023-02-01T10:02:52.689Z,50.73
2023-02-01T10:05:30.263Z,50.22
2023-02-01T10:08:06.908Z,50.04
2023-02-01T10:10:41.128Z,49.62
2023-02-01T10:13:26.436Z,48.94
2023-02-01T10:16:20.296Z,48.81
2023-02-01T10:19:04.387Z,49.38
2023-02-01T10:21:49.978Z,49.58
2023-02-01T10:24:37.306Z,48.66
2023-02-01T10:27:15.359Z,48.12
2023-02-01T10:29:47.050Z,47.84
2023-02-01T10:32:17.840Z,47.37
2023-02-01T10:34:52.270Z,47.66
2023-02-01T10:37:27.833Z,46.76
2023-02-01T10:40:00.012Z,47.15
2023-02-01T10:42:30.989Z,46.74
2023-02-01T10:45:02.712Z,46.85
2023-02-01T10:47:31.291Z,47.14
2023-02-01T10:50:16.937Z,46.40
2023-02-01T10:52:50.663Z,46.11
2023-02-01T10:55:35.012Z,46.28
2023-02-01T10:58:05.990Z,45.96
2023-02-01T11:00:47.834Z,45.29
2023-02-01T11:03:38.716Z,45.31
2023-02-01T11:06:20.196Z,45.55
2023-02-01T11:08:51.265Z,44.27
2023-02-01T11:11:22.341Z,44.17
2023-02-01T11:13:57.099Z,44.38
2023-02-01T11:16:33.430Z,43.78
2023-02-01T11:19:02.390Z,42.30
2023-02-01T11:21:31.191Z,41.52
2023-02-01T11:24:04.435Z,40.47
2023-02-01T11:26:35.097Z,39.78
2023-02-01T11:29:07.618Z,40.54
2023-02-01T11:31:37.427Z,39.70
2023-02-01T11:34:11.541Z,39.36
2023-02-01T11:36:42.528Z,39.18
2023-02-01T11:39:21.987Z,39.14
2023-02-01T11:42:06.092Z,38.82
2023-02-01T11:44:37.732Z,39.10
2023-02-01T11:47:27.751Z,38.96
2023-02-01T11:49:58.248Z,38.54
2023-02-01T11:52:46.548Z,38.72
2023-02-01T11:55:55.089Z,38.12
2023-02-01T11:59:10.658Z,38.50
2023-02-01T12:02:06.244Z,38.59
2023-02-01T12:05:04.167Z,37.71
2023-02-01T12:07:50.923Z,37.86
2023-02-01T12:10:31.307Z,38.03
2023-02-01T12:13:21.265Z,38.10
2023-02-01T12:16:04.769Z,38.37
2023-02-01T12:18:44.291Z,37.96
2023-02-01T12:21:30.891Z,38.06
2023-02-01T12:24:19.253Z,38.23
2023-02-01T12:26:57.136Z,38.30
2023-02-01T12:29:59.369Z,37.76
2023-02-01T12:32:53.859Z,39.00
2023-02-01T12:35:41.092Z,38.68
2023-02-01T12:38:32.154Z,38.06
2023-02-01T12:41:16.000Z,37.56
2023-02-01T12:43:49.340Z,37.17
2023-02-01T12:46:23.814Z,37.31
2023-02-01T12:49:00.098Z,37.49
2023-02-01T12:51:31.955Z,37.31
2023-02-01T12:54:06.918Z,36.68
2023-02-01T12:56:39.613Z,36.72
2023-02-01T12:59:18.400Z,36.46
2023-02-01T13:01:53.551Z,36.18
2023-02-01T13:04:29.525Z,36.66
2023-02-01T13:07:06.704Z,35.65
2023-02-01T13:09:41.974Z,35.95
2023-02-01T13:12:16.341Z,35.99
2023-02-01T13:14:51.586Z,35.96
2023-02-01T13:17:25.812Z,36.07
2023-02-01T13:19:59.867Z,35.59
2023-02-01T13:22:34.220Z,35.05
2023-02-01T13:25:07.332Z,35.34
2023-02-01T13:27:36.222Z,35.16
2023-02-01T13:30:11.015Z,35.38
2023-02-01T13:33:53.108Z,35.79
2023-02-01T13:36:25.294Z,36.19
2023-02-01T13:39:21.645Z,35.73
2023-02-01T13:41:57.253Z,36.02
2023-02-01T13:44:33.236Z,36.52
2023-02-01T13:47:04.711Z,36.09
2023-02-01T13:49:39.714Z,35.80
2023-02-01T13:52:27.392Z,36.01
2023-02-01T13:55:18.030Z,35.53
2023-02-01T13:57:47.099Z,36.03
2023-02-01T14:00:32.247Z,36.32
2023-02-01T14:03:16.967Z,35.96
2023-02-01T14:06:38.377Z,35.85
2023-02-01T14:09:34.623Z,36.06
2023-02-01T14:12:36.055Z,35.27
2023-02-01T14:15:25.223Z,35.31
2023-02-01T14:17:54.379Z,35.60
2023-02-01T14:20:52.054Z,35.21
2023-02-01T14:23:24.737Z,35.54
2023-02-01T14:26:26.531Z,34.74
2023-02-01T14:29:03.744Z,35.07
2023-02-01T14:31:44.508Z,35.34
2023-02-01T14:34:24.347Z,35.35
2023-02-01T14:36:58.389Z,34.84
2023-02-01T14:39:34.859Z,35.08
2023-02-01T14:42:13.908Z,34.88
2023-02-01T14:44:58.938Z,35.03
2023-02-01T14:47:32.018Z,35.04
2023-02-01T14:50:17.801Z,35.20
2023-02-01T14:52:49.649Z,34.97
2023-02-01T14:55:23.382Z,34.56
2023-02-01T14:57:57.593Z,34.64
2023-02-01T15:00:28.400Z,34.22
2023-02-01T15:03:13.908Z,34.42
2023-02-01T15:05:42.488Z,35.10
2023-02-01T15:08:20.262Z,34.87
2023-02-01T15:10:52.735Z,35.16
2023-02-01T15:13:24.543Z,35.03
2023-02-01T15:16:03.785Z,35.68
2023-02-01T15:18:32.694Z,35.84
2023-02-01T15:21:09.512Z,34.81
2023-02-01T15:23:52.206Z,35.09
2023-02-01T15:26:29.232Z,35.08
2023-02-01T15:29:00.939Z,35.15
2023-02-01T15:31:36.088Z,35.08
2023-02-01T15:34:05.372Z,35.67
2023-02-01T15:36:34.904Z,35.71
2023-02-01T15:39:26.899Z,35.28
2023-02-01T15:41:58.353Z,36.33
2023-02-01T15:44:36.057Z,35.79
2023-02-01T15:47:11.467Z,35.90
2023-02-01T15:49:42.848Z,36.33
2023-02-01T15:52:23.885Z,35.96
2023-02-01T15:54:55.085Z,35.78
2023-02-01T15:57:31.533Z,35.67
2023-02-01T16:00:05.658Z,35.96
2023-02-01T16:02:45.917Z,35.78
2023-02-01T16:05:33.416Z,35.58
2023-02-01T16:08:06.189Z,35.65
2023-02-01T16:10:42.118Z,35.55
2023-02-01T16:13:11.088Z,36.05
2023-02-01T16:15:41.671Z,36.14
2023-02-01T16:18:14.088Z,36.23
2023-02-01T16:20:44.916Z,36.26
2023-02-01T16:23:13.860Z,36.31
2023-02-01T16:25:42.799Z,37.06
2023-02-01T16:28:11.489Z,36.93
2023-02-01T16:31:05.844Z,37.21
2023-02-01T16:33:44.909Z,37.70
2023-02-01T16:36:14.770Z,37.71
2023-02-01T16:38:43.260Z,37.62
2023-02-01T16:41:15.859Z,37.68
2023-02-01T16:43:45.862Z,38.08
2023-02-01T16:46:21.605Z,38.34
2023-02-01T16:48:54.109Z,38.55
2023-02-01T16:51:22.825Z,38.55
2023-02-01T16:53:54.512Z,38.72
2023-02-01T16:56:31.096Z,38.67
2023-02-01T16:58:59.913Z,39.05
2023-02-01T17:01:40.428Z,39.06
2023-02-01T17:04:09.318Z,39.42
2023-02-01T17:06:39.029Z,39.29
2023-02-01T17:09:08.360Z,39.86
2023-02-01T17:11:38.848Z,39.84
2023-02-01T17:14:17.748Z,39.47
2023-02-01T17:16:49.720Z,39.66
2023-02-01T17:19:21.252Z,39.96
2023-02-01T17:21:52.886Z,40.23
2023-02-01T17:24:25.937Z,40.26
2023-02-01T17:26:55.755Z,40.89
2023-02-01T17:29:25.069Z,41.64
2023-02-01T17:31:58.655Z,42.21
2023-02-01T17:34:27.838Z,41.95
2023-02-01T17:36:56.918Z,41.56
2023-02-01T17:39:42.742Z,41.93
2023-02-01T17:42:13.639Z,41.52
2023-02-01T17:44:42.355Z,41.58
2023-02-01T17:47:12.329Z,42.02
2023-02-01T17:49:41.110Z,41.75
2023-02-01T17:52:16.255Z,40.76
2023-02-01T17:54:45.132Z,41.19
2023-02-01T17:57:14.576Z,41.26
2023-02-01T17:59:43.251Z,41.39
2023-02-01T18:02:20.614Z,40.37
2023-02-01T18:04:50.357Z,40.99
2023-02-01T18:07:19.707Z,41.08
2023-02-01T18:09:48.473Z,40.33
2023-02-01T18:12:25.863Z,40.67
2023-02-01T18:14:58.713Z,40.96
2023-02-01T18:17:29.002Z,41.36
2023-02-01T18:19:59.963Z,40.99
2023-02-01T18:22:34.839Z,40.38
2023-02-01T18:25:14.346Z,40.98
2023-02-01T18:27:42.988Z,40.71
2023-02-01T18:30:13.052Z,40.26
2023-02-01T18:32:43.827Z,40.47
2023-02-01T18:35:21.750Z,40.57
2023-02-01T18:37:51.539Z,41.05
2023-02-01T18:40:22.685Z,41.58
2023-02-01T18:42:51.583Z,40.91
2023-02-01T18:45:31.875Z,41.20
2023-02-01T18:48:02.231Z,41.91
2023-02-01T18:50:33.895Z,41.58
2023-02-01T18:53:04.446Z,42.30
2023-02-01T18:55:33.730Z,41.79
2023-02-01T18:58:03.016Z,41.26
2023-02-01T19:00:31.730Z,41.58
2023-02-01T19:03:04.842Z,41.82
2023-02-01T19:05:33.577Z,42.52
2023-02-01T19:08:04.140Z,41.60
2023-02-01T19:10:39.927Z,41.90
2023-02-01T19:13:13.539Z,41.51
2023-02-01T19:15:42.708Z,41.69
2023-02-01T19:18:12.745Z,42.28
2023-02-01T19:20:48.526Z,42.43
2023-02-01T19:23:22.236Z,42.43
2023-02-01T19:25:56.644Z,42.41
2023-02-01T19:28:28.085Z,42.42
2023-02-01T19:31:05.983Z,42.99
2023-02-01T19:33:40.350Z,42.69
2023-02-01T19:36:14.521Z,43.02
2023-02-01T19:38:47.882Z,42.56
2023-02-01T19:41:17.114Z,43.33
2023-02-01T19:43:46.000Z,43.39
2023-02-01T19:46:14.689Z,43.52
2023-02-01T19:48:44.683Z,43.53
2023-02-01T19:51:13.232Z,43.47
2023-02-01T19:53:41.642Z,43.73
2023-02-01T19:56:10.278Z,43.17
2023-02-01T19:58:38.719Z,42.75
2023-02-01T20:01:07.363Z,43.20
2023-02-01T20:03:35.911Z,42.83
2023-02-01T20:06:07.561Z,43.07
2023-02-01T20:08:36.110Z,43.37
2023-02-01T20:11:07.668Z,43.72
2023-02-01T20:13:38.788Z,43.26
2023-02-01T20:16:07.861Z,44.18
2023-02-01T20:18:37.592Z,44.69
2023-02-01T20:21:07.722Z,44.11
2023-02-01T20:23:36.847Z,44.15
2023-02-01T20:26:08.157Z,44.94
2023-02-01T20:28:37.271Z,45.26
2023-02-01T20:31:07.309Z,45.69
2023-02-01T20:33:36.030Z,46.15
2023-02-01T20:36:05.558Z,45.69
2023-02-01T20:38:35.797Z,45.39
2023-02-01T20:41:05.420Z,45.68
2023-02-01T20:43:34.551Z,45.53
2023-02-01T20:46:03.493Z,45.59
2023-02-01T20:48:33.083Z,45.47
2023-02-01T20:51:01.618Z,45.76
2023-02-01T20:53:30.621Z,45.49
2023-02-01T20:56:00.792Z,45.68
2023-02-01T20:58:29.509Z,45.49
2023-02-01T21:00:58.518Z,45.65
2023-02-01T21:03:27.394Z,45.51
2023-02-01T21:05:57.981Z,45.79
2023-02-01T21:08:27.610Z,45.85
2023-02-01T21:11:03.534Z,45.80
2023-02-01T21:13:36.356Z,46.48
2023-02-01T21:16:09.850Z,46.20
2023-02-01T21:18:38.714Z,46.21
2023-02-01T21:21:07.915Z,46.78
2023-02-01T21:23:45.179Z,46.89
2023-02-01T21:26:15.967Z,47.02
2023-02-01T21:28:44.753Z,46.95
2023-02-01T21:31:14.205Z,46.48
2023-02-01T21:33:42.764Z,47.15
2023-02-01T21:36:19.186Z,46.50
2023-02-01T21:38:50.155Z,46.34
2023-02-01T21:41:38.499Z,46.59
2023-02-01T21:44:07.249Z,46.18
2023-02-01T21:46:35.873Z,46.89
2023-02-01T21:49:07.212Z,46.36
2023-02-01T21:51:38.221Z,46.83
2023-02-01T21:54:07.319Z,46.82
2023-02-01T21:56:37.826Z,46.84
2023-02-01T21:59:06.591Z,47.45
2023-02-01T22:01:35.456Z,47.72
2023-02-01T22:04:04.019Z,48.11
2023-02-01T22:06:35.025Z,48.46
2023-02-01T22:09:04.145Z,48.97
2023-02-01T22:11:33.941Z,48.79
2023-02-01T22:14:04.018Z,48.68
2023-02-01T22:16:32.669Z,48.69
2023-02-01T22:19:01.184Z,48.59
2023-02-01T22:21:29.736Z,49.38
2023-02-01T22:24:00.332Z,49.77
2023-02-01T22:26:29.484Z,49.92
2023-02-01T22:28:58.038Z,49.44
2023-02-01T22:31:28.205Z,49.28
2023-02-01T22:33:57.072Z,49.39
2023-02-01T22:36:26.104Z,49.62
2023-02-01T22:38:54.739Z,49.42
2023-02-01T22:41:23.300Z,49.09
2023-02-01T22:43:52.122Z,49.01
2023-02-01T22:46:23.015Z,48.96
2023-02-01T22:48:53.470Z,49.07
2023-02-01T22:51:24.354Z,49.58
2023-02-01T22:53:57.177Z,50.01
2023-02-01T22:56:27.260Z,49.96
2023-02-01T22:58:57.555Z,49.78
2023-02-01T23:01:36.524Z,50.18
2023-02-01T23:04:08.531Z,50.09
2023-02-01T23:06:37.375Z,50.37
2023-02-01T23:09:11.914Z,50.51
2023-02-01T23:11:40.900Z,50.43
2023-02-01T23:14:11.005Z,49.88
2023-02-01T23:16:41.261Z,49.87
2023-02-01T23:19:11.487Z,49.68
2023-02-01T23:21:40.043Z,50.04
2023-02-01T23:24:10.956Z,50.36
2023-02-01T23:26:40.438Z,49.82
2023-02-01T23:29:08.950Z,50.32
2023-02-01T23:31:37.626Z,50.41
2023-02-01T23:34:06.491Z,50.40
2023-02-01T23:36:36.535Z,50.74
2023-02-01T23:39:05.192Z,51.10
2023-02-01T23:41:33.843Z,50.71
2023-02-01T23:44:02.376Z,50.98
2023-02-01T23:46:34.236Z,51.66
2023-02-01T23:49:05.273Z,51.31
2023-02-01T23:51:37.289Z,51.44
2023-02-01T23:54:06.181Z,52.09
2023-02-01T23:56:36.921Z,52.48
2023-02-01T23:59:07.577Z,52.21
